Ridgeland, Mississippi
Current Conditions -  °F | °C
As of 4:53 PM on Wednesday 17 Dec 2014 (Local Time) from KHKS Reporting Station
Clear Clear  
Wind Chill: 53°   Ceiling: Unl
Heat Index: 53°   Visibility: 10mi
Dew Point: 38°   Wind: 3mph
Humidity: 57%   Direction: 340°NNW
Pressure: 30.2"   Gusts: NA
Location:  32.43°N, 90.14°W
Report Text: KHKS 172253Z 34003KT 10SM CLR 12/03 A3020 RMK AO2 SLP224 T01170033
Loading
Personal Weather Stations






























Interactive Weather Map New forecast layout! Learn more

10-Day Weather Forecast

Advertisements
Track Severe Weather on mobile